createdAt,value
2022-08-20T00:09:36.497Z,100.00
2022-08-20T00:19:58.536Z,100.00
2022-08-20T00:30:20.846Z,100.00
2022-08-20T00:40:52.895Z,100.00
2022-08-20T00:51:36.201Z,100.00
2022-08-20T01:01:58.257Z,100.00
2022-08-20T01:12:20.299Z,100.00
2022-08-20T01:23:30.108Z,100.00
2022-08-20T01:33:54.585Z,100.00
2022-08-20T01:44:18.526Z,100.00
2022-08-20T01:54:41.044Z,100.00
2022-08-20T02:05:02.704Z,100.00
2022-08-20T02:15:34.559Z,100.00
2022-08-20T02:25:59.264Z,100.00
2022-08-20T02:36:21.001Z,100.00
2022-08-20T02:46:42.619Z,100.00
2022-08-20T02:57:04.667Z,100.00
2022-08-20T03:07:26.223Z,100.00
2022-08-20T03:17:48.471Z,100.00
2022-08-20T03:28:10.741Z,100.00
2022-08-20T03:38:33.528Z,100.00
2022-08-20T03:48:59.936Z,100.00
2022-08-20T03:59:22.100Z,100.00
2022-08-20T04:09:46.435Z,100.00
2022-08-20T04:20:10.839Z,100.00
2022-08-20T04:30:33.419Z,100.00
2022-08-20T04:41:01.130Z,100.00
2022-08-20T04:51:22.917Z,100.00
2022-08-20T05:01:45.561Z,100.00
2022-08-20T05:12:07.453Z,100.00
2022-08-20T05:22:31.049Z,100.00
2022-08-20T05:32:52.684Z,100.00
2022-08-20T05:43:14.820Z,100.00
2022-08-20T05:53:37.626Z,100.00
2022-08-20T06:04:18.223Z,100.00
2022-08-20T06:14:39.848Z,100.00
2022-08-20T06:25:03.214Z,100.00
2022-08-20T06:35:25.198Z,100.00
2022-08-20T06:45:46.743Z,100.00
2022-08-20T06:56:08.365Z,100.00
2022-08-20T07:06:29.931Z,100.00
2022-08-20T07:16:51.499Z,100.00
2022-08-20T07:27:13.166Z,100.00
2022-08-20T07:37:40.848Z,100.00
2022-08-20T07:48:11.841Z,98.54
2022-08-20T07:58:36.635Z,90.87
2022-08-20T08:09:06.370Z,99.82
2022-08-20T08:19:33.791Z,94.78
2022-08-20T08:29:55.483Z,80.27
2022-08-20T08:40:17.385Z,87.29
2022-08-20T08:50:53.106Z,82.18
2022-08-20T09:01:54.281Z,82.20
2022-08-20T09:12:09.594Z,77.60
2022-08-20T09:22:33.357Z,67.91
2022-08-20T09:32:54.892Z,64.70
2022-08-20T09:43:16.484Z,64.48
2022-08-20T09:53:38.019Z,64.56
2022-08-20T10:03:59.616Z,62.65
2022-08-20T10:14:21.141Z,65.36
2022-08-20T10:24:43.055Z,58.40
2022-08-20T10:35:05.110Z,64.65
2022-08-20T10:45:26.741Z,61.48
2022-08-20T10:55:48.277Z,64.46
2022-08-20T11:06:09.843Z,57.55
2022-08-20T11:16:31.504Z,57.95
2022-08-20T11:26:53.448Z,52.21
2022-08-20T11:37:16.543Z,54.48
2022-08-20T11:47:38.502Z,60.04
2022-08-20T11:58:00.942Z,56.99
2022-08-20T12:08:27.058Z,54.27
2022-08-20T12:18:49.646Z,51.40
2022-08-20T12:29:11.174Z,51.99
2022-08-20T12:39:34.623Z,54.64
2022-08-20T12:50:01.179Z,53.69
2022-08-20T13:00:34.493Z,54.27
2022-08-20T13:10:56.047Z,55.32
2022-08-20T13:21:20.082Z,52.88
2022-08-20T13:31:45.533Z,53.43
2022-08-20T13:42:07.285Z,51.31
2022-08-20T13:52:28.872Z,51.94
2022-08-20T14:02:50.491Z,50.36
2022-08-20T14:13:15.316Z,49.08
2022-08-20T14:23:37.181Z,49.39
2022-08-20T14:33:58.694Z,48.47
2022-08-20T14:44:20.247Z,47.94
2022-08-20T14:54:42.564Z,50.23
2022-08-20T15:05:07.015Z,50.01
2022-08-20T15:15:28.900Z,49.39
2022-08-20T15:25:50.413Z,46.96
2022-08-20T15:36:12.151Z,47.92
2022-08-20T15:46:36.249Z,47.87
2022-08-20T15:57:07.334Z,50.82
2022-08-20T16:07:37.083Z,51.21
2022-08-20T16:18:03.203Z,55.51
2022-08-20T16:28:32.644Z,55.45
2022-08-20T16:39:03.408Z,54.00
2022-08-20T16:49:28.462Z,50.84
2022-08-20T17:00:14.921Z,56.50
2022-08-20T17:10:58.427Z,53.34
2022-08-20T17:21:26.967Z,59.73
2022-08-20T17:31:54.587Z,64.54
2022-08-20T17:42:26.125Z,63.50
2022-08-20T17:52:58.816Z,63.30
2022-08-20T18:03:24.829Z,64.76
2022-08-20T18:14:04.724Z,66.02
2022-08-20T18:24:46.387Z,67.81
2022-08-20T18:35:34.281Z,68.75
2022-08-20T18:45:55.926Z,69.13
2022-08-20T18:56:17.689Z,70.83
2022-08-20T19:06:47.751Z,69.32
2022-08-20T19:17:43.864Z,71.13
2022-08-20T19:28:23.602Z,71.18
2022-08-20T19:38:50.116Z,72.63
2022-08-20T19:49:43.115Z,74.76
2022-08-20T20:00:11.238Z,75.02
2022-08-20T20:10:35.691Z,76.50
2022-08-20T20:21:11.595Z,74.70
2022-08-20T20:31:42.559Z,76.11
2022-08-20T20:42:07.138Z,75.71
2022-08-20T20:52:35.648Z,75.68
2022-08-20T21:02:57.389Z,75.55
2022-08-20T21:13:21.784Z,73.92
2022-08-20T21:23:43.357Z,75.78
2022-08-20T21:34:04.868Z,78.02
2022-08-20T21:44:29.751Z,78.77
2022-08-20T21:54:52.372Z,79.02
2022-08-20T22:05:15.099Z,79.23
2022-08-20T22:15:36.654Z,79.84
2022-08-20T22:25:58.199Z,79.48
2022-08-20T22:36:19.742Z,80.47
2022-08-20T22:46:47.384Z,79.63
2022-08-20T22:57:10.415Z,80.03
2022-08-20T23:07:34.085Z,80.97
2022-08-20T23:18:01.870Z,82.13
2022-08-20T23:28:25.106Z,83.68
2022-08-20T23:38:46.983Z,85.19
2022-08-20T23:49:08.553Z,84.53
2022-08-20T23:59:30.156Z,85.51
